Time;durP1;ratioP1;P1;durP2;ratioP2;P2;SDS_P1;SDS_P2;PMS_P1;PMS_P2;Temp;Humidity;BMP_temperature;BMP_pressure;BME280_temperature;BME280_humidity;BME280_pressure;Samples;Min_cycle;Max_cycle;Signal;HPM_P1;HPM_P2
2021/12/16 00:09:45;;;;;;;16.83;7.87;;;7.10;99.90;;;7.84;100.00;99853.44;5033090;28;20463;-79
2021/12/16 00:29:42;;;;;;;14.20;7.77;;;7.00;99.90;;;7.76;100.00;99866.22;5044892;28;21009;-80
2021/12/16 00:32:27;;;;;;;13.23;7.40;;;6.80;99.90;;;7.78;100.00;99854.72;5040972;28;20641;-79
2021/12/16 00:34:57;;;;;;;14.30;7.13;;;7.00;99.90;;;7.81;100.00;99866.69;5055412;28;20464;-79
2021/12/16 00:37:28;;;;;;;10.47;7.03;;;7.00;99.90;;;7.82;100.00;99866.56;5052771;28;20489;-78
2021/12/16 00:39:58;;;;;;;12.90;7.50;;;7.00;99.90;;;7.81;100.00;99864.09;5053763;28;20600;-78
2021/12/16 00:42:39;;;;;;;13.40;7.10;;;7.00;99.90;;;7.81;100.00;99858.88;5050409;28;21051;-79
2021/12/16 00:45:33;;;;;;;11.80;7.20;;;7.10;99.90;;;7.79;100.00;99860.78;5049227;28;20976;-78
2021/12/16 00:48:23;;;;;;;11.10;6.80;;;7.00;99.90;;;7.75;100.00;99854.16;5049270;28;20479;-79
2021/12/16 00:56:30;;;;;;;9.77;6.60;;;7.00;99.90;;;7.80;100.00;99870.25;5049513;28;20449;-79
2021/12/16 00:59:03;;;;;;;13.17;7.60;;;7.00;99.90;;;7.78;100.00;99865.16;5049451;28;20463;-79
2021/12/16 01:01:42;;;;;;;11.70;7.07;;;7.00;99.90;;;7.80;100.00;99871.06;5045071;28;20966;-79
2021/12/16 01:07:25;;;;;;;11.27;6.50;;;7.00;99.90;;;7.79;100.00;99861.59;5045195;28;20989;-79
2021/12/16 01:35:41;;;;;;;14.13;7.17;;;7.00;99.90;;;7.77;100.00;99894.78;5046106;28;20485;-79
2021/12/16 01:46:58;;;;;;;11.20;7.70;;;7.00;99.90;;;7.77;100.00;99899.13;5050627;28;20980;-79
2021/12/16 01:49:47;;;;;;;9.50;6.50;;;7.00;99.90;;;7.77;100.00;99899.13;5047630;28;20469;-79
2021/12/16 01:52:44;;;;;;;19.37;6.30;;;7.00;99.90;;;7.79;100.00;99902.44;5046469;28;20504;-79
2021/12/16 01:55:30;;;;;;;11.80;7.20;;;7.00;99.90;;;7.76;100.00;99897.47;5047523;28;20500;-79
2021/12/16 01:58:11;;;;;;;10.20;6.00;;;7.00;99.90;;;7.76;100.00;99902.69;5046911;28;20468;-79
2021/12/16 02:00:56;;;;;;;11.80;6.20;;;7.00;99.90;;;7.73;100.00;99895.97;5049029;28;20457;-79
2021/12/16 02:03:41;;;;;;;14.97;7.20;;;6.90;99.90;;;7.73;100.00;99892.53;5046506;28;20487;-78
2021/12/16 02:06:44;;;;;;;10.90;6.80;;;6.90;99.90;;;7.73;100.00;99898.56;5047353;28;20482;-79
2021/12/16 02:09:23;;;;;;;12.63;7.30;;;6.80;99.90;;;7.69;100.00;99888.50;5045392;28;20456;-79
2021/12/16 02:12:00;;;;;;;10.70;6.80;;;6.80;99.90;;;7.67;100.00;99890.41;5046237;28;20579;-79
2021/12/16 02:28:50;;;;;;;27.47;7.47;;;6.90;99.90;;;7.71;100.00;99870.97;5043788;28;20515;-78
2021/12/16 02:31:34;;;;;;;9.80;6.20;;;6.80;99.90;;;7.71;100.00;99873.56;5043993;28;20492;-79
2021/12/16 02:36:56;;;;;;;13.33;6.30;;;6.70;99.90;;;7.65;100.00;99868.88;5045602;28;20499;-79
2021/12/16 02:39:35;;;;;;;13.10;6.67;;;6.70;99.90;;;7.67;100.00;99867.00;5041932;28;20489;-79
2021/12/16 02:42:16;;;;;;;9.80;5.87;;;6.80;99.90;;;7.67;100.00;99867.00;5045506;28;20481;-79
2021/12/16 02:50:22;;;;;;;13.03;6.10;;;6.90;99.90;;;7.71;100.00;99865.75;5038544;28;20465;-78
2021/12/16 02:52:53;;;;;;;9.67;6.40;;;7.00;99.90;;;7.72;100.00;99870.03;5045358;28;20855;-79
2021/12/16 02:55:25;;;;;;;13.67;5.80;;;6.90;99.90;;;7.71;100.00;99878.78;5043249;28;20461;-79
2021/12/16 02:58:00;;;;;;;9.83;6.17;;;6.90;99.90;;;7.74;100.00;99873.34;5045050;28;20538;-80
2021/12/16 03:00:37;;;;;;;14.47;7.37;;;7.00;99.90;;;7.71;100.00;99873.56;5044304;28;20464;-79
2021/12/16 03:03:07;;;;;;;10.87;6.33;;;7.00;99.90;;;7.69;100.00;99876.31;5047254;28;20472;-78
2021/12/16 03:05:38;;;;;;;10.47;5.10;;;6.90;99.90;;;7.67;100.00;99872.19;5046853;28;20478;-79
2021/12/16 03:08:08;;;;;;;14.80;6.27;;;6.80;99.90;;;7.67;100.00;99877.41;5043922;28;20965;-79
2021/12/16 03:11:07;;;;;;;13.10;6.43;;;6.80;99.90;;;7.67;100.00;99873.00;5046848;28;20543;-80
2021/12/16 03:14:18;;;;;;;16.07;7.07;;;6.80;99.90;;;7.69;100.00;99873.72;5045730;28;20511;-79
2021/12/16 03:17:04;;;;;;;12.10;6.57;;;6.90;99.90;;;7.68;100.00;99871.22;5048060;28;20877;-79
2021/12/16 03:19:46;;;;;;;12.20;6.60;;;6.80;99.90;;;7.67;100.00;99870.38;5045036;28;20844;-79
2021/12/16 03:22:35;;;;;;;8.40;6.00;;;6.90;99.90;;;7.69;100.00;99871.09;5047352;28;21106;-79
2021/12/16 03:25:15;;;;;;;8.07;5.70;;;7.00;99.90;;;7.71;100.00;99873.56;5048001;28;20449;-79
2021/12/16 03:33:55;;;;;;;11.10;5.70;;;6.90;99.90;;;7.73;100.00;99861.28;5038530;28;21072;-79
2021/12/16 03:37:12;;;;;;;13.87;6.43;;;7.00;99.90;;;7.75;100.00;99869.78;5044353;28;20461;-78
2021/12/16 03:39:51;;;;;;;17.30;7.60;;;7.00;99.90;;;7.71;100.00;99873.56;5042810;28;20484;-79
2021/12/16 03:42:28;;;;;;;9.30;6.00;;;6.90;99.90;;;7.71;100.00;99884.00;5048469;28;20460;-78
2021/12/16 03:46:24;;;;;;;13.03;6.50;;;6.90;99.90;;;7.72;100.00;99885.66;5047218;28;20465;-79
2021/12/16 03:47:58;;;;;;;11.37;6.17;;;7.00;99.90;;;7.73;100.00;99889.91;5046083;28;20537;-79
2021/12/16 03:50:29;;;;;;;10.33;6.67;;;6.90;99.90;;;7.71;100.00;99884.00;5047594;28;20548;-79
2021/12/16 03:53:01;;;;;;;18.90;6.40;;;6.90;99.90;;;7.69;100.00;99891.09;5041180;28;20846;-78
2021/12/16 03:55:32;;;;;;;11.30;6.10;;;6.90;99.90;;;7.69;100.00;99891.94;5046530;28;20543;-78
2021/12/16 03:58:02;;;;;;;12.83;6.40;;;6.90;99.90;;;7.70;100.00;99897.97;5043716;28;20472;-78
2021/12/16 04:00:40;;;;;;;13.90;6.13;;;6.90;99.90;;;7.70;100.00;99895.38;5047850;28;20457;-78
2021/12/16 04:03:32;;;;;;;14.80;6.73;;;6.90;99.90;;;7.71;100.00;99891.81;5046587;28;20456;-78
2021/12/16 04:06:02;;;;;;;10.50;6.43;;;6.90;99.90;;;7.71;100.00;99894.41;5041866;28;20457;-82
2021/12/16 04:08:33;;;;;;;11.87;5.87;;;6.90;99.90;;;7.70;100.00;99893.59;5046237;28;20464;-81
2021/12/16 04:11:12;;;;;;;18.73;7.30;;;6.90;99.90;;;7.71;100.00;99900.44;5042254;28;20453;-78
2021/12/16 04:13:53;;;;;;;17.20;6.10;;;6.90;99.90;;;7.71;100.00;99900.44;5046757;28;20535;-78
2021/12/16 04:16:28;;;;;;;9.30;5.57;;;7.00;99.90;;;7.73;100.00;99897.72;5036175;28;20497;-78
2021/12/16 04:19:01;;;;;;;13.57;6.00;;;7.10;99.90;;;7.72;100.00;99896.06;5040575;28;20464;-78
2021/12/16 04:21:33;;;;;;;7.67;5.43;;;7.10;99.90;;;7.71;100.00;99903.03;5044851;28;20563;-79
2021/12/16 04:24:04;;;;;;;15.17;5.90;;;7.00;99.90;;;7.71;100.00;99902.22;5043137;28;20469;-78
2021/12/16 04:26:35;;;;;;;18.70;6.10;;;7.00;99.90;;;7.71;100.00;99904.81;5042924;28;20465;-78
2021/12/16 04:29:06;;;;;;;11.63;5.87;;;7.00;99.90;;;7.71;100.00;99907.41;5048452;28;20445;-78
2021/12/16 04:31:40;;;;;;;10.93;5.80;;;6.90;99.90;;;7.71;100.00;99910.03;5048502;28;20454;-78
2021/12/16 04:34:10;;;;;;;11.60;6.77;;;6.90;99.90;;;7.70;100.00;99914.44;5048508;28;20495;-78
2021/12/16 04:36:42;;;;;;;10.70;6.50;;;6.90;99.90;;;7.72;100.00;99906.47;5048098;28;20441;-78
2021/12/16 04:39:19;;;;;;;13.27;7.50;;;6.90;99.90;;;7.70;100.00;99909.22;5047747;28;20450;-78
2021/12/16 04:41:53;;;;;;;10.10;7.03;;;7.00;99.90;;;7.70;100.00;99909.22;5041384;28;20576;-78
2021/12/16 04:44:25;;;;;;;13.17;6.33;;;6.90;99.90;;;7.71;100.00;99907.41;5048322;28;20510;-78
2021/12/16 04:47:00;;;;;;;12.93;5.90;;;6.90;99.90;;;7.72;100.00;99911.69;5048320;28;20491;-77
2021/12/16 04:49:31;;;;;;;13.10;6.43;;;6.90;99.90;;;7.73;100.00;99908.16;5039964;28;20957;-78
2021/12/16 04:52:08;;;;;;;13.33;7.00;;;6.90;99.90;;;7.72;100.00;99917.72;5048276;28;20446;-78
2021/12/16 04:54:47;;;;;;;20.13;5.97;;;6.90;99.90;;;7.72;100.00;99909.09;5052769;28;20449;-77
2021/12/16 04:57:17;;;;;;;9.90;6.10;;;6.90;99.90;;;7.71;100.00;99915.22;5043188;28;20472;-78
2021/12/16 04:59:47;;;;;;;9.40;6.03;;;6.90;99.90;;;7.72;100.00;99924.72;5052883;28;20491;-77
2021/12/16 05:02:23;;;;;;;11.10;7.37;;;6.90;99.90;;;7.70;100.00;99924.00;5046623;28;20453;-76
2021/12/16 05:04:54;;;;;;;23.27;7.40;;;6.90;99.90;;;7.69;100.00;99924.97;5051499;28;20464;-76
2021/12/16 05:07:24;;;;;;;11.30;6.47;;;7.00;99.90;;;7.72;100.00;99919.50;5047393;28;20540;-76
2021/12/16 05:10:05;;;;;;;14.80;7.20;;;7.00;99.90;;;7.68;100.00;99928.50;5047040;28;20540;-78
2021/12/16 05:12:41;;;;;;;12.93;6.57;;;6.90;99.90;;;7.69;100.00;99923.19;5042637;28;20597;-76
2021/12/16 05:15:18;;;;;;;18.30;7.43;;;6.90;99.90;;;7.69;100.00;99925.78;5042330;28;20473;-76
2021/12/16 05:17:52;;;;;;;13.67;6.70;;;6.90;99.90;;;7.69;100.00;99928.38;5048850;28;20460;-76
2021/12/16 05:20:27;;;;;;;10.87;6.40;;;7.00;99.90;;;7.69;100.00;99927.56;5051340;28;20453;-77
2021/12/16 05:26:07;;;;;;;16.83;6.13;;;7.00;99.90;;;7.68;100.00;99936.31;5052511;28;20448;-77
2021/12/16 05:28:50;;;;;;;12.30;6.33;;;6.90;99.90;;;7.67;100.00;99932.06;5050994;28;20948;-77
2021/12/16 05:31:22;;;;;;;11.97;6.03;;;6.90;99.90;;;7.64;100.00;99934.91;5052946;28;20455;-77
2021/12/16 05:33:58;;;;;;;11.13;6.33;;;6.90;99.90;;;7.61;100.00;99935.97;5051703;28;20828;-77
2021/12/16 05:36:28;;;;;;;10.50;5.90;;;6.90;99.90;;;7.62;100.00;99948.06;5053301;28;21021;-77
2021/12/16 05:38:57;;;;;;;13.37;6.80;;;6.80;99.90;;;7.60;100.00;99942.94;5052648;28;20810;-77
2021/12/16 05:41:28;;;;;;;9.60;6.53;;;6.90;99.90;;;7.59;100.00;99938.72;5052895;28;20485;-77
2021/12/16 05:43:58;;;;;;;11.87;6.63;;;7.00;99.90;;;7.60;100.00;99939.53;5054419;28;20449;-77
2021/12/16 05:46:29;;;;;;;9.60;6.17;;;6.90;99.90;;;7.59;100.00;99946.53;5053155;28;20453;-77
2021/12/16 05:49:03;;;;;;;12.20;5.87;;;6.80;99.90;;;7.60;100.00;99950.75;5052650;28;20441;-77
2021/12/16 05:51:36;;;;;;;15.17;7.30;;;6.80;99.90;;;7.59;100.00;99954.34;5046058;28;20453;-77
2021/12/16 05:54:08;;;;;;;9.47;6.93;;;6.80;99.90;;;7.62;100.00;99955.03;5052316;28;20504;-76
2021/12/16 05:56:39;;;;;;;11.30;6.03;;;6.80;99.90;;;7.60;100.00;99960.38;5051009;28;20453;-77
2021/12/16 05:59:11;;;;;;;9.80;6.70;;;6.80;99.90;;;7.60;100.00;99955.97;5052481;28;20452;-77
2021/12/16 06:01:44;;;;;;;10.07;6.13;;;6.80;99.90;;;7.55;100.00;99957.28;5054684;28;20445;-77
2021/12/16 06:04:16;;;;;;;14.57;7.30;;;6.70;99.90;;;7.57;100.00;99955.38;5052464;28;20461;-77
2021/12/16 06:06:47;;;;;;;11.30;6.33;;;6.90;99.90;;;7.58;100.00;99963.09;5052756;28;20480;-76
2021/12/16 06:09:17;;;;;;;12.13;6.60;;;6.90;99.90;;;7.60;100.00;99965.59;5052482;28;20458;-77
2021/12/16 06:11:48;;;;;;;9.43;6.27;;;6.90;99.90;;;7.59;100.00;99959.53;5047921;28;20516;-77
2021/12/16 06:14:23;;;;;;;9.87;6.33;;;6.80;99.90;;;7.57;100.00;99964.03;5051819;28;20497;-77
2021/12/16 06:23:02;;;;;;;13.20;6.70;;;6.90;99.90;;;7.57;100.00;99958.81;5052236;28;20841;-77
2021/12/16 06:28:18;;;;;;;9.53;5.73;;;6.90;99.90;;;7.49;100.00;99956.00;5049524;28;20449;-77
2021/12/16 06:30:48;;;;;;;8.63;6.00;;;6.70;99.90;;;7.50;100.00;99965.44;5052210;28;20780;-77
2021/12/16 06:33:22;;;;;;;20.70;5.90;;;6.70;99.90;;;7.51;100.00;99967.13;5049816;28;20542;-76
2021/12/16 06:35:56;;;;;;;16.30;7.17;;;6.70;99.90;;;7.49;100.00;99961.22;5051949;28;20486;-76
2021/12/16 06:38:26;;;;;;;10.30;6.93;;;6.70;99.90;;;7.51;100.00;99956.69;5047757;28;20457;-77
2021/12/16 06:40:58;;;;;;;11.67;6.17;;;6.80;99.90;;;7.50;100.00;99967.22;5051679;28;20484;-76
2021/12/16 06:43:30;;;;;;;16.27;8.17;;;6.70;99.90;;;7.52;100.00;99965.34;5055097;28;20530;-77
2021/12/16 06:46:02;;;;;;;14.90;6.43;;;6.70;99.90;;;7.50;100.00;99957.63;5050677;28;20472;-77
2021/12/16 06:48:36;;;;;;;11.60;6.53;;;6.70;99.90;;;7.42;100.00;99960.03;5051622;28;20448;-77
2021/12/16 06:51:11;;;;;;;10.67;6.20;;;6.60;99.90;;;7.45;100.00;99957.19;5044243;28;20484;-76
2021/12/16 06:53:50;;;;;;;10.37;6.07;;;6.70;99.90;;;7.48;100.00;99967.34;5065373;28;20483;-77
2021/12/16 06:56:24;;;;;;;15.77;7.70;;;6.80;99.90;;;7.50;100.00;99964.63;5056057;28;20446;-77
2021/12/16 06:59:04;;;;;;;12.20;6.90;;;6.70;99.90;;;7.50;100.00;99964.63;5059828;28;20494;-77
2021/12/16 07:01:39;;;;;;;12.40;5.83;;;6.70;99.90;;;7.49;100.00;99970.78;5059601;28;20825;-77
2021/12/16 07:04:15;;;;;;;10.03;6.47;;;6.70;99.90;;;7.48;100.00;99982.97;5059217;28;20440;-76
2021/12/16 07:06:47;;;;;;;13.50;6.50;;;6.80;99.90;;;7.48;100.00;99982.97;5052982;28;20474;-77
2021/12/16 07:09:19;;;;;;;27.17;6.17;;;6.70;99.90;;;7.49;100.00;99989.00;5060349;28;20449;-76
2021/12/16 07:11:56;;;;;;;12.57;6.93;;;6.70;99.90;;;7.46;100.00;99989.25;5052308;28;20874;-77
2021/12/16 07:14:36;;;;;;;6.80;5.27;;;6.70;99.90;;;7.48;100.00;99997.75;5064409;28;20515;-77
2021/12/16 07:17:11;;;;;;;11.67;6.67;;;6.70;99.90;;;7.44;100.00;100002.38;5050455;28;20452;-77
2021/12/16 07:19:45;;;;;;;9.27;6.17;;;6.60;99.90;;;7.43;100.00;99994.66;5063658;28;20470;-77
2021/12/16 07:22:16;;;;;;;10.23;6.27;;;6.70;99.90;;;7.45;100.00;99993.63;5062236;28;20465;-77
2021/12/16 07:24:45;;;;;;;9.40;6.30;;;6.70;99.90;;;7.47;100.00;99998.69;5064947;28;20949;-77
2021/12/16 07:27:15;;;;;;;8.27;5.63;;;6.90;99.90;;;7.49;100.00;100010.66;5055639;28;20487;-77
2021/12/16 07:29:46;;;;;;;11.67;6.37;;;6.90;99.90;;;7.51;100.00;100013.97;5064227;28;20498;-77
2021/12/16 07:32:16;;;;;;;11.27;6.50;;;6.80;99.90;;;7.50;100.00;100012.31;5065456;28;20453;-76
2021/12/16 07:34:46;;;;;;;8.30;6.13;;;6.70;99.90;;;7.43;100.00;100011.13;5063150;28;21001;-76
2021/12/16 07:37:17;;;;;;;13.57;6.50;;;6.70;99.90;;;7.42;100.00;100019.91;5062797;28;21158;-77
2021/12/16 07:39:49;;;;;;;9.70;6.27;;;6.70;99.90;;;7.45;100.00;100027.47;5060088;28;20484;-77
2021/12/16 07:42:26;;;;;;;8.27;5.77;;;6.70;99.90;;;7.46;100.00;100036.91;5058415;28;20453;-77
2021/12/16 07:44:56;;;;;;;14.50;6.43;;;6.80;99.90;;;7.44;100.00;100020.59;5050992;28;20526;-77
2021/12/16 07:47:26;;;;;;;11.30;6.27;;;6.70;99.90;;;7.45;100.00;100031.84;5064428;28;20491;-76
2021/12/16 07:49:57;;;;;;;9.57;6.13;;;6.70;99.90;;;7.45;100.00;100024.88;5058172;28;20456;-77
2021/12/16 07:52:28;;;;;;;12.13;6.57;;;6.70;99.90;;;7.49;100.00;100041.06;5058220;28;20453;-77
2021/12/16 07:54:57;;;;;;;10.93;6.13;;;6.80;99.90;;;7.51;100.00;100034.78;5053749;28;21030;-76
2021/12/16 07:57:27;;;;;;;10.20;5.60;;;6.80;99.90;;;7.49;100.00;100048.88;5051415;28;20471;-76
2021/12/16 07:59:56;;;;;;;10.70;6.27;;;6.70;99.90;;;7.49;100.00;100047.09;5064022;28;20441;-76
2021/12/16 08:02:26;;;;;;;15.37;6.30;;;6.80;99.90;;;7.52;100.00;100052.06;5060080;28;20499;-77
2021/12/16 08:04:57;;;;;;;11.70;6.53;;;6.80;99.90;;;7.52;100.00;100057.28;5057156;28;20510;-77
2021/12/16 08:07:29;;;;;;;11.20;6.27;;;6.80;99.90;;;7.53;100.00;100058.13;5059501;28;20442;-77
2021/12/16 08:10:00;;;;;;;9.90;5.50;;;6.80;99.90;;;7.54;100.00;100065.78;5062030;28;20806;-77
2021/12/16 08:12:30;;;;;;;9.80;6.17;;;6.80;99.90;;;7.54;100.00;100065.78;5052565;28;20468;-77
2021/12/16 08:15:00;;;;;;;9.13;5.53;;;6.80;99.90;;;7.55;100.00;100067.47;5064230;28;20527;-77
2021/12/16 08:17:29;;;;;;;8.33;5.53;;;6.80;99.90;;;7.57;100.00;100065.53;5057439;28;20463;-77
2021/12/16 08:20:01;;;;;;;9.03;5.83;;;6.70;99.90;;;7.60;100.00;100072.31;5058860;28;20460;-77
2021/12/16 08:22:31;;;;;;;9.00;5.67;;;6.80;99.90;;;7.59;100.00;100071.47;5059304;28;20484;-77
2021/12/16 08:25:02;;;;;;;9.20;5.77;;;6.80;99.90;;;7.60;100.00;100075.72;5049270;28;20447;-77
2021/12/16 08:27:33;;;;;;;11.27;6.27;;;6.70;99.90;;;7.62;100.00;100077.38;5065939;28;20460;-77
2021/12/16 08:30:06;;;;;;;12.10;6.47;;;6.90;99.90;;;7.64;100.00;100070.28;5061207;28;20445;-77
2021/12/16 08:32:35;;;;;;;18.80;6.80;;;6.90;99.90;;;7.65;100.00;100082.34;5065888;28;20460;-77
2021/12/16 08:35:08;;;;;;;10.40;5.87;;;6.80;99.90;;;7.65;100.00;100074.53;5060214;28;20497;-77
2021/12/16 08:37:41;;;;;;;8.30;5.03;;;6.90;99.90;;;7.66;100.00;100076.22;5058826;28;20481;-77
2021/12/16 08:40:16;;;;;;;14.67;5.90;;;6.80;99.90;;;7.67;100.00;100078.69;5063399;28;20530;-77
2021/12/16 08:42:47;;;;;;;9.67;5.07;;;7.00;99.90;;;7.69;100.00;100078.56;5053818;28;20480;-77
2021/12/16 08:45:23;;;;;;;12.77;6.63;;;7.00;99.90;;;7.72;100.00;100088.75;5064471;28;20448;-77
2021/12/16 08:47:54;;;;;;;12.90;5.70;;;7.10;99.90;;;7.75;100.00;100088.50;5058874;28;20483;-77
2021/12/16 08:50:29;;;;;;;13.53;5.77;;;7.00;99.90;;;7.77;100.00;100089.22;5047492;28;20449;-76
2021/12/16 08:53:00;;;;;;;8.63;5.20;;;7.00;99.90;;;7.79;100.00;100101.19;5061374;28;20445;-77
2021/12/16 08:55:35;;;;;;;9.73;6.27;;;7.10;99.90;;;7.83;100.00;100107.81;5062330;28;20496;-77
2021/12/16 08:58:06;;;;;;;10.47;5.83;;;7.00;99.90;;;7.82;100.00;100103.53;5059098;28;20498;-77
2021/12/16 09:00:41;;;;;;;10.30;5.93;;;7.00;99.90;;;7.84;100.00;100104.28;5058082;28;20447;-76
2021/12/16 09:03:11;;;;;;;11.80;5.63;;;7.00;99.90;;;7.85;100.00;100107.69;5065417;28;20478;-77
2021/12/16 09:05:42;;;;;;;14.07;6.70;;;7.00;99.90;;;7.86;100.00;100101.53;5062082;28;20440;-77
2021/12/16 09:08:17;;;;;;;7.60;4.83;;;7.00;99.90;;;7.89;100.00;100106.50;5067178;28;20940;-77
2021/12/16 09:10:47;;;;;;;7.87;5.40;;;7.10;99.90;;;7.91;100.00;100110.63;5054929;28;20468;-77
2021/12/16 09:13:18;;;;;;;12.07;6.07;;;7.10;99.90;;;7.94;100.00;100104.38;5058376;28;20881;-77
2021/12/16 09:15:54;;;;;;;11.53;6.00;;;7.10;99.90;;;7.98;100.00;100111.00;5062452;28;20504;-77
2021/12/16 09:18:28;;;;;;;7.33;5.47;;;7.20;99.90;;;8.02;100.00;100115.00;5055804;28;20465;-76
2021/12/16 09:21:04;;;;;;;13.80;6.47;;;7.20;99.90;;;8.02;100.00;100110.63;5064844;28;20479;-77
2021/12/16 09:23:46;;;;;;;9.73;5.80;;;7.20;99.90;;;8.02;100.00;100109.81;5060560;28;20469;-76
2021/12/16 09:26:20;;;;;;;9.73;5.03;;;7.20;99.90;;;8.05;100.00;100107.78;5063377;28;20458;-77
2021/12/16 09:28:52;;;;;;;13.13;5.90;;;7.30;99.90;;;8.09;100.00;100110.97;5057810;28;21028;-76
2021/12/16 09:31:30;;;;;;;7.93;4.53;;;7.40;99.90;;;8.13;100.00;100106.34;5062883;28;20489;-77
2021/12/16 09:34:06;;;;;;;7.57;4.67;;;7.40;99.90;;;8.16;100.00;100109.56;5065630;28;20501;-77
2021/12/16 09:36:39;;;;;;;9.07;5.10;;;7.40;99.90;;;8.17;100.00;100106.00;5060499;28;20532;-77
2021/12/16 09:39:16;;;;;;;10.87;5.10;;;7.40;99.90;;;8.21;100.00;100110.03;5060420;28;20443;-77
2021/12/16 09:41:50;;;;;;;10.50;5.20;;;7.50;99.90;;;8.25;100.00;100113.22;5064089;28;20450;-77
2021/12/16 09:44:21;;;;;;;6.90;4.80;;;7.50;99.90;;;8.27;100.00;100121.72;5058226;28;20511;-77
2021/12/16 09:46:56;;;;;;;8.03;4.57;;;7.60;99.90;;;8.29;100.00;100120.72;5066182;28;20452;-76
2021/12/16 09:49:26;;;;;;;12.30;5.00;;;7.60;99.90;;;8.31;100.00;100118.81;5062465;28;20463;-77
2021/12/16 09:51:59;;;;;;;8.17;4.63;;;7.60;99.90;;;8.35;100.00;100120.22;5051107;28;20445;-77
2021/12/16 09:54:35;;;;;;;5.80;4.70;;;7.60;99.90;;;8.39;100.00;100134.69;5048494;28;20469;-77
2021/12/16 09:57:05;;;;;;;9.50;5.13;;;7.60;99.90;;;8.41;100.00;100132.75;5058219;28;20538;-77
2021/12/16 09:59:36;;;;;;;10.80;4.70;;;7.60;99.90;;;8.43;100.00;100136.09;5059136;28;20445;-76
2021/12/16 10:02:14;;;;;;;10.27;5.10;;;7.70;99.90;;;8.47;100.00;100140.09;5063811;28;20447;-77
2021/12/16 10:04:45;;;;;;;14.17;6.27;;;7.90;99.90;;;8.50;100.00;100134.63;5063726;28;20440;-77
2021/12/16 10:07:27;;;;;;;12.80;6.27;;;7.90;99.90;;;8.54;100.00;100140.44;5059857;28;20984;-77
2021/12/16 10:09:59;;;;;;;8.53;5.00;;;7.80;99.90;;;8.55;100.00;100137.72;5045267;28;20449;-77
2021/12/16 10:12:34;;;;;;;16.50;7.30;;;7.80;99.90;;;8.61;100.00;100135.59;5050428;28;20469;-77
2021/12/16 10:17:23;;;;;;;10.83;5.73;;;7.90;99.90;;;8.65;100.00;100142.19;5056470;28;20487;-77
2021/12/16 10:18:00;;;;;;;7.93;6.20;;;7.90;99.90;;;8.70;100.00;100142.66;5064921;28;20635;-77
2021/12/16 10:20:34;;;;;;;9.70;7.00;;;8.00;99.90;;;8.74;100.00;100141.47;5060734;28;20466;-77
2021/12/16 10:23:24;;;;;;;10.70;6.63;;;8.00;99.90;;;8.77;100.00;100141.22;5062418;28;20532;-77
2021/12/16 10:26:00;;;;;;;10.30;5.63;;;8.00;99.90;;;8.81;100.00;100147.84;5057872;28;20444;-77
2021/12/16 10:28:37;;;;;;;15.67;6.10;;;8.10;99.90;;;8.85;100.00;100151.88;5060263;28;20456;-78
2021/12/16 10:31:10;;;;;;;11.33;6.13;;;8.10;99.90;;;8.88;100.00;100143.78;5053612;28;20502;-77
2021/12/16 10:33:44;;;;;;;12.17;5.33;;;8.20;99.90;;;8.89;100.00;100138.44;5058432;28;20449;-77
2021/12/16 10:36:20;;;;;;;7.70;5.20;;;8.20;99.90;;;8.93;100.00;100136.41;5055433;28;20587;-77
2021/12/16 10:38:55;;;;;;;11.50;5.67;;;8.20;99.90;;;8.97;100.00;100143.88;5058127;28;20443;-77
2021/12/16 10:41:32;;;;;;;6.87;4.90;;;8.30;99.90;;;8.98;100.00;100144.69;5059944;28;20484;-77
2021/12/16 10:44:07;;;;;;;8.03;5.60;;;8.30;99.90;;;9.02;100.00;100138.28;5053355;28;20478;-77
2021/12/16 10:46:41;;;;;;;17.17;5.17;;;8.30;99.90;;;9.03;100.00;100137.31;5061011;28;20817;-77
2021/12/16 10:49:16;;;;;;;5.97;4.60;;;8.30;99.90;;;9.07;100.00;100128.28;5062003;28;20471;-77
2021/12/16 10:51:49;;;;;;;9.47;5.17;;;8.30;99.90;;;9.11;100.00;100132.28;5047856;28;20538;-77
2021/12/16 10:54:24;;;;;;;9.77;5.60;;;8.40;99.90;;;9.14;100.00;100132.03;5058317;28;20461;-77
2021/12/16 10:57:02;;;;;;;10.73;6.03;;;8.40;99.90;;;9.19;100.00;100126.44;5051897;28;20535;-77
2021/12/16 10:59:37;;;;;;;9.20;5.40;;;8.50;99.90;;;9.24;100.00;100127.72;5059964;28;20438;-77
2021/12/16 11:02:15;;;;;;;11.00;6.13;;;8.60;99.90;;;9.31;100.00;100121.03;5054827;28;20461;-77
2021/12/16 11:04:52;;;;;;;8.70;6.60;;;8.70;99.90;;;9.35;100.00;100105.94;5063262;28;20449;-77
2021/12/16 11:07:30;;;;;;;10.50;6.00;;;8.80;99.90;;;9.38;100.00;100105.66;5055696;28;20546;-77
2021/12/16 11:10:12;;;;;;;8.17;5.40;;;8.80;99.90;;;9.41;100.00;100108.84;5051161;28;20444;-77
2021/12/16 11:12:48;;;;;;;7.40;5.97;;;8.80;99.90;;;9.46;100.00;100113.69;5054715;28;20468;-77
2021/12/16 11:15:29;;;;;;;6.80;5.00;;;8.90;99.90;;;9.49;100.00;100103.00;5060449;28;20465;-77
2021/12/16 11:18:04;;;;;;;8.37;5.40;;;9.00;99.90;;;9.51;100.00;100103.72;5050447;28;20440;-77
2021/12/16 11:20:40;;;;;;;9.77;5.03;;;9.00;99.90;;;9.55;100.00;100107.69;5060197;28;20878;-77
2021/12/16 11:23:15;;;;;;;6.33;4.67;;;9.00;99.90;;;9.56;100.00;100106.75;5062683;28;20515;-77
2021/12/16 11:25:48;;;;;;;8.40;3.83;;;9.00;99.90;;;9.59;100.00;100111.72;5060501;28;21007;-77
2021/12/16 11:28:24;;;;;;;9.40;3.87;;;9.10;99.90;;;9.57;100.00;100111.84;5060775;28;20837;-77
2021/12/16 11:30:57;;;;;;;7.13;3.93;;;9.10;99.90;;;9.57;100.00;100111.03;5050941;28;20802;-77
2021/12/16 11:33:34;;;;;;;13.63;4.90;;;9.10;99.90;;;9.55;100.00;100111.13;5064838;28;20954;-76
2021/12/16 11:36:11;;;;;;;4.70;3.87;;;9.10;99.90;;;9.57;100.00;100114.47;5057113;28;20971;-77
2021/12/16 11:38:45;;;;;;;5.13;4.00;;;9.10;99.90;;;9.61;100.00;100115.84;5057865;28;20896;-77
2021/12/16 11:41:29;;;;;;;5.23;3.70;;;9.10;99.90;;;9.64;100.00;100111.31;5057566;28;20481;-77
2021/12/16 11:44:11;;;;;;;7.73;4.00;;;9.10;99.90;;;9.63;100.00;100112.28;5052990;28;20475;-77
2021/12/16 11:46:52;;;;;;;6.73;4.70;;;9.10;99.90;;;9.65;100.00;100113.00;5063812;28;20461;-77
2021/12/16 11:49:29;;;;;;;8.17;4.93;;;9.10;99.90;;;9.66;100.00;100119.84;5061538;28;20491;-77
2021/12/16 11:52:05;;;;;;;9.10;4.67;;;9.10;99.90;;;9.63;100.00;100112.28;5048373;28;20433;-77
2021/12/16 11:54:40;;;;;;;9.73;4.20;;;9.00;99.90;;;9.63;100.00;100107.88;5059286;28;20441;-77
2021/12/16 11:57:15;;;;;;;8.47;4.53;;;9.00;99.90;;;9.62;100.00;100114.06;5064087;28;20529;-77
2021/12/16 11:59:51;;;;;;;12.33;4.73;;;9.00;99.90;;;9.59;100.00;100112.53;5060006;28;20574;-76
2021/12/16 12:02:31;;;;;;;5.43;3.93;;;9.10;99.90;;;9.59;100.00;100111.72;5060458;28;20448;-77
2021/12/16 12:05:21;;;;;;;7.87;4.60;;;9.10;99.90;;;9.59;100.00;100109.91;5053419;28;20441;-77
2021/12/16 12:07:57;;;;;;;13.30;4.90;;;9.00;99.90;;;9.61;100.00;100102.78;5049163;28;20534;-76
2021/12/16 12:10:43;;;;;;;10.77;5.37;;;9.00;99.90;;;9.66;100.00;100106.78;5055709;28;20746;-76
2021/12/16 12:13:17;;;;;;;15.27;4.47;;;9.10;99.90;;;9.67;100.00;100096.22;5043608;28;20816;-77
2021/12/16 12:16:04;;;;;;;10.50;5.37;;;9.00;99.90;;;9.71;100.00;100104.63;5052937;28;20528;-77
2021/12/16 12:18:43;;;;;;;8.37;5.43;;;9.10;99.90;;;9.73;100.00;100094.84;5057126;28;20465;-77
2021/12/16 12:21:31;;;;;;;9.57;6.37;;;9.10;99.90;;;9.77;100.00;100096.25;5050097;28;20464;-76
2021/12/16 12:24:07;;;;;;;8.10;4.83;;;9.20;99.90;;;9.78;100.00;100095.31;5053958;28;20460;-77
2021/12/16 12:26:42;;;;;;;9.37;5.53;;;9.20;99.90;;;9.82;100.00;100099.31;5064929;28;20445;-76
2021/12/16 12:29:17;;;;;;;8.30;5.40;;;9.30;99.90;;;9.83;100.00;100096.56;5069486;28;20464;-77
2021/12/16 12:31:54;;;;;;;15.80;5.83;;;9.30;99.90;;;9.86;100.00;100085.84;5065636;28;20440;-77
2021/12/16 12:34:24;;;;;;;11.73;4.90;;;9.30;99.90;;;9.89;100.00;100098.63;5068944;28;20452;-77
2021/12/16 12:36:58;;;;;;;11.60;5.87;;;9.40;99.90;;;9.93;100.00;100092.19;5064827;28;20496;-77
2021/12/16 12:39:33;;;;;;;16.23;5.50;;;9.40;99.90;;;9.96;100.00;100086.69;5060601;28;20937;-77
2021/12/16 12:42:01;;;;;;;8.07;5.00;;;9.40;99.90;;;9.98;100.00;100092.63;5068048;28;20501;-77